RYR34BB EPMO-LIRA
Flight info
| Callsign | RYR34BB |
|---|---|
| Flight time | 1h 53m |
| Altitude | 38000 |
| Route | EVIN3C EVINA Z175 SKARY DCT KOPRY DCT ZDA DCT ELGUS DCT XAMIT DCT ESODU DCT ASPIR DCT MOPUV |
| Aircraft | B38M/M-SADE3FGILRWY/SB1 |
Departure
| Time | 2026-04-21 07:12 |
|---|---|
| Airport | Warsaw Modlin Airport (EPMO) |
Arrival
| Time | 2026-04-21 09:06 |
|---|---|
| Airport | Ciampino–G. B. Pastine International Airport (LIRA) |
| Time | Latitude | Longitude | Altitude | Speed | Heading |
|---|---|---|---|---|---|
| 2026-04-21 06:46 | 52.44749 | 20.65262 | 0 ft | 0 kts | 206° |
| 2026-04-21 07:03 | 52.44750 | 20.65262 | 340 ft | 1 kts | 206° |
| 2026-04-21 07:03 | 52.44767 | 20.65277 | 336 ft | 4 kts | 210° |
| 2026-04-21 07:04 | 52.44788 | 20.65303 | 338 ft | 4 kts | 233° |
| 2026-04-21 07:04 | 52.44799 | 20.65342 | 336 ft | 4 kts | 258° |
| 2026-04-21 07:04 | 52.44801 | 20.65360 | 337 ft | 1 kts | 261° |
| 2026-04-21 07:04 | 52.44801 | 20.65361 | 337 ft | 0 kts | 261° |
| 2026-04-21 07:08 | 52.44800 | 20.65353 | 340 ft | 2 kts | 261° |
| 2026-04-21 07:08 | 52.44794 | 20.65287 | 339 ft | 10 kts | 261° |
| 2026-04-21 07:09 | 52.44779 | 20.65122 | 336 ft | 19 kts | 262° |
| 2026-04-21 07:09 | 52.44756 | 20.64883 | 340 ft | 21 kts | 262° |
| 2026-04-21 07:09 | 52.44733 | 20.64639 | 337 ft | 23 kts | 261° |
| 2026-04-21 07:09 | 52.44708 | 20.64377 | 340 ft | 24 kts | 261° |
| 2026-04-21 07:10 | 52.44682 | 20.64106 | 340 ft | 24 kts | 262° |
| 2026-04-21 07:10 | 52.44657 | 20.63834 | 340 ft | 23 kts | 261° |
| 2026-04-21 07:10 | 52.44634 | 20.63592 | 338 ft | 18 kts | 261° |
| 2026-04-21 07:10 | 52.44654 | 20.63456 | 338 ft | 12 kts | 327° |
| 2026-04-21 07:11 | 52.44741 | 20.63430 | 340 ft | 14 kts | 351° |
| 2026-04-21 07:11 | 52.44841 | 20.63406 | 339 ft | 16 kts | 352° |
| 2026-04-21 07:11 | 52.44946 | 20.63424 | 341 ft | 15 kts | 45° |
| 2026-04-21 07:11 | 52.44972 | 20.63595 | 340 ft | 17 kts | 81° |
| 2026-04-21 07:12 | 52.45012 | 20.64015 | 339 ft | 74 kts | 81° |
| 2026-04-21 07:12 | 52.45133 | 20.65275 | 344 ft | 148 kts | 81° |
| 2026-04-21 07:12 | 52.45304 | 20.67173 | 777 ft | 173 kts | 78° |
| 2026-04-21 07:12 | 52.45465 | 20.69065 | 2095 ft | 161 kts | 81° |
| 2026-04-21 07:13 | 52.45556 | 20.70974 | 2989 ft | 179 kts | 83° |
| 2026-04-21 07:13 | 52.45648 | 20.73144 | 3631 ft | 204 kts | 83° |
| 2026-04-21 07:13 | 52.45765 | 20.75616 | 4325 ft | 231 kts | 83° |
| 2026-04-21 07:13 | 52.45880 | 20.78335 | 5184 ft | 248 kts | 87° |
| 2026-04-21 07:14 | 52.45368 | 20.81121 | 6124 ft | 264 kts | 125° |
| 2026-04-21 07:14 | 52.43944 | 20.82963 | 7264 ft | 274 kts | 156° |
| 2026-04-21 07:14 | 52.42035 | 20.83427 | 8250 ft | 283 kts | 184° |
| 2026-04-21 07:14 | 52.40119 | 20.82582 | 9319 ft | 289 kts | 201° |
| 2026-04-21 07:15 | 52.38211 | 20.81430 | 10287 ft | 295 kts | 197° |
| 2026-04-21 07:15 | 52.36222 | 20.80313 | 10957 ft | 311 kts | 197° |
| 2026-04-21 07:15 | 52.34115 | 20.79160 | 11531 ft | 327 kts | 197° |
| 2026-04-21 07:15 | 52.31919 | 20.77954 | 12214 ft | 338 kts | 197° |
| 2026-04-21 07:16 | 52.29681 | 20.76708 | 13141 ft | 342 kts | 197° |
| 2026-04-21 07:16 | 52.27408 | 20.75434 | 13920 ft | 349 kts | 197° |
| 2026-04-21 07:16 | 52.25095 | 20.74139 | 14691 ft | 353 kts | 197° |
| 2026-04-21 07:16 | 52.22763 | 20.72827 | 15494 ft | 356 kts | 197° |
| 2026-04-21 07:17 | 52.20411 | 20.71507 | 16254 ft | 360 kts | 197° |
| 2026-04-21 07:17 | 52.18033 | 20.70172 | 17021 ft | 363 kts | 197° |
| 2026-04-21 07:17 | 52.15633 | 20.68825 | 17766 ft | 366 kts | 197° |
| 2026-04-21 07:17 | 52.13216 | 20.67470 | 18488 ft | 370 kts | 197° |
| 2026-04-21 07:18 | 52.10770 | 20.66101 | 19115 ft | 373 kts | 197° |
| 2026-04-21 07:18 | 52.08310 | 20.64724 | 19754 ft | 375 kts | 197° |
| 2026-04-21 07:18 | 52.05827 | 20.63335 | 20388 ft | 378 kts | 197° |
| 2026-04-21 07:18 | 52.03334 | 20.61941 | 20996 ft | 381 kts | 196° |
| 2026-04-21 07:19 | 52.00821 | 20.60537 | 21608 ft | 383 kts | 196° |
| 2026-04-21 07:19 | 51.98288 | 20.59125 | 22215 ft | 386 kts | 196° |
| 2026-04-21 07:19 | 51.95740 | 20.57704 | 22800 ft | 389 kts | 197° |
| 2026-04-21 07:19 | 51.93185 | 20.56208 | 23378 ft | 392 kts | 197° |
| 2026-04-21 07:20 | 51.90611 | 20.54697 | 23916 ft | 395 kts | 197° |
| 2026-04-21 07:20 | 51.88019 | 20.53182 | 24358 ft | 398 kts | 197° |
| 2026-04-21 07:20 | 51.85404 | 20.51656 | 24796 ft | 401 kts | 197° |
| 2026-04-21 07:20 | 51.82765 | 20.50119 | 25219 ft | 405 kts | 197° |
| 2026-04-21 07:21 | 51.80106 | 20.48572 | 25655 ft | 408 kts | 197° |
| 2026-04-21 07:21 | 51.77427 | 20.47017 | 26070 ft | 411 kts | 197° |
| 2026-04-21 07:21 | 51.74725 | 20.45449 | 26475 ft | 414 kts | 197° |
| 2026-04-21 07:21 | 51.72005 | 20.43872 | 26902 ft | 417 kts | 197° |
| 2026-04-21 07:22 | 51.69263 | 20.42286 | 27311 ft | 420 kts | 197° |
| 2026-04-21 07:22 | 51.66502 | 20.40696 | 27702 ft | 422 kts | 195° |
| 2026-04-21 07:22 | 51.63639 | 20.39769 | 28096 ft | 419 kts | 181° |
| 2026-04-21 07:22 | 51.60721 | 20.39350 | 28424 ft | 424 kts | 183° |
| 2026-04-21 07:23 | 51.57776 | 20.38873 | 28802 ft | 427 kts | 183° |
| 2026-04-21 07:23 | 51.54816 | 20.38414 | 29172 ft | 429 kts | 183° |
| 2026-04-21 07:23 | 51.51832 | 20.37960 | 29536 ft | 432 kts | 183° |
| 2026-04-21 07:23 | 51.48868 | 20.37513 | 29895 ft | 435 kts | 184° |
| 2026-04-21 07:24 | 51.45806 | 20.37052 | 30244 ft | 437 kts | 184° |
| 2026-04-21 07:24 | 51.42804 | 20.36602 | 30526 ft | 440 kts | 184° |
| 2026-04-21 07:24 | 51.39755 | 20.36057 | 30796 ft | 443 kts | 191° |
| 2026-04-21 07:24 | 51.36847 | 20.34455 | 31127 ft | 444 kts | 205° |
| 2026-04-21 07:25 | 51.34030 | 20.32387 | 31340 ft | 448 kts | 204° |
| 2026-04-21 07:25 | 51.31188 | 20.30326 | 31633 ft | 450 kts | 204° |
| 2026-04-21 07:25 | 51.28344 | 20.28237 | 31912 ft | 452 kts | 205° |
| 2026-04-21 07:25 | 51.25480 | 20.26121 | 32178 ft | 454 kts | 205° |
| 2026-04-21 07:26 | 51.22608 | 20.23998 | 32444 ft | 456 kts | 205° |
| 2026-04-21 07:26 | 51.19726 | 20.21869 | 32712 ft | 458 kts | 205° |
| 2026-04-21 07:26 | 51.16830 | 20.19733 | 32962 ft | 460 kts | 205° |
| 2026-04-21 07:26 | 51.13919 | 20.17588 | 33202 ft | 462 kts | 205° |
| 2026-04-21 07:27 | 51.10987 | 20.15432 | 33456 ft | 465 kts | 205° |
| 2026-04-21 07:27 | 51.08051 | 20.13274 | 33758 ft | 465 kts | 205° |
| 2026-04-21 07:27 | 51.05113 | 20.11119 | 34091 ft | 465 kts | 205° |
| 2026-04-21 07:27 | 51.02174 | 20.08966 | 34366 ft | 465 kts | 205° |
| 2026-04-21 07:28 | 50.99229 | 20.06812 | 34624 ft | 465 kts | 205° |
| 2026-04-21 07:28 | 50.96293 | 20.04666 | 34898 ft | 465 kts | 205° |
| 2026-04-21 07:28 | 50.93352 | 20.02521 | 35171 ft | 465 kts | 205° |
| 2026-04-21 07:28 | 50.90410 | 20.00378 | 35431 ft | 465 kts | 205° |
| 2026-04-21 07:29 | 50.87470 | 19.98239 | 35694 ft | 465 kts | 205° |
| 2026-04-21 07:29 | 50.84527 | 19.96101 | 35960 ft | 465 kts | 205° |
| 2026-04-21 07:29 | 50.81584 | 19.93966 | 36220 ft | 465 kts | 205° |
| 2026-04-21 07:29 | 50.78647 | 19.91838 | 36484 ft | 465 kts | 205° |
| 2026-04-21 07:30 | 50.75744 | 19.89738 | 36727 ft | 465 kts | 205° |
| 2026-04-21 07:30 | 50.72766 | 19.87586 | 36980 ft | 464 kts | 205° |
| 2026-04-21 07:30 | 50.69836 | 19.85473 | 37221 ft | 464 kts | 205° |
| 2026-04-21 07:30 | 50.66931 | 19.83380 | 37458 ft | 464 kts | 205° |
| 2026-04-21 07:31 | 50.63954 | 19.81238 | 37682 ft | 464 kts | 205° |
| 2026-04-21 07:31 | 50.61055 | 19.79155 | 37905 ft | 464 kts | 206° |
| 2026-04-21 07:31 | 50.58122 | 19.77051 | 38092 ft | 464 kts | 206° |
| 2026-04-21 07:31 | 50.55181 | 19.74944 | 38131 ft | 465 kts | 206° |
| 2026-04-21 07:32 | 50.49279 | 19.70724 | 38115 ft | 462 kts | 206° |
| 2026-04-21 07:32 | 50.43460 | 19.66574 | 38114 ft | 462 kts | 206° |
| 2026-04-21 07:33 | 50.38559 | 19.63088 | 38116 ft | 462 kts | 206° |
| 2026-04-21 07:33 | 50.35774 | 19.61111 | 38108 ft | 462 kts | 206° |
| 2026-04-21 07:34 | 50.29930 | 19.56971 | 38113 ft | 462 kts | 206° |
| 2026-04-21 07:34 | 50.24068 | 19.52828 | 38114 ft | 462 kts | 206° |
| 2026-04-21 07:35 | 50.18201 | 19.48693 | 38115 ft | 463 kts | 206° |
| 2026-04-21 07:35 | 50.12339 | 19.44573 | 38115 ft | 462 kts | 206° |
| 2026-04-21 07:36 | 50.06472 | 19.40460 | 38110 ft | 462 kts | 206° |
| 2026-04-21 07:36 | 50.00605 | 19.36359 | 38107 ft | 462 kts | 206° |
| 2026-04-21 07:37 | 49.94743 | 19.32272 | 38098 ft | 462 kts | 206° |
| 2026-04-21 07:37 | 49.88884 | 19.28198 | 38089 ft | 462 kts | 206° |
| 2026-04-21 07:38 | 49.83012 | 19.24125 | 38090 ft | 462 kts | 206° |
| 2026-04-21 07:38 | 49.77143 | 19.20067 | 38082 ft | 462 kts | 206° |
| 2026-04-21 07:39 | 49.71277 | 19.16020 | 38086 ft | 462 kts | 206° |
| 2026-04-21 07:39 | 49.65406 | 19.11981 | 38076 ft | 462 kts | 206° |
| 2026-04-21 07:40 | 49.59540 | 19.07956 | 38068 ft | 461 kts | 206° |
| 2026-04-21 07:40 | 49.53681 | 19.03943 | 38070 ft | 461 kts | 206° |
| 2026-04-21 07:41 | 49.47813 | 18.99936 | 38062 ft | 461 kts | 206° |
| 2026-04-21 07:41 | 49.41937 | 18.95972 | 38065 ft | 461 kts | 206° |
| 2026-04-21 07:42 | 49.37051 | 18.92695 | 38063 ft | 461 kts | 206° |
| 2026-04-21 07:42 | 49.31174 | 18.88760 | 38065 ft | 461 kts | 206° |
| 2026-04-21 07:43 | 49.25305 | 18.84839 | 38065 ft | 461 kts | 206° |
| 2026-04-21 07:43 | 49.19427 | 18.80924 | 38071 ft | 460 kts | 206° |
| 2026-04-21 07:44 | 49.13559 | 18.77027 | 38068 ft | 460 kts | 206° |
| 2026-04-21 07:44 | 49.07689 | 18.73137 | 38062 ft | 459 kts | 206° |
| 2026-04-21 07:45 | 49.01830 | 18.69263 | 38051 ft | 459 kts | 206° |
| 2026-04-21 07:45 | 48.95970 | 18.65400 | 38049 ft | 459 kts | 206° |
| 2026-04-21 07:46 | 48.90110 | 18.61548 | 38043 ft | 459 kts | 206° |
| 2026-04-21 07:46 | 48.84256 | 18.57708 | 38035 ft | 458 kts | 206° |
| 2026-04-21 07:47 | 48.78397 | 18.53875 | 38034 ft | 458 kts | 206° |
| 2026-04-21 07:47 | 48.72549 | 18.50058 | 38032 ft | 458 kts | 206° |
| 2026-04-21 07:48 | 48.66696 | 18.46249 | 38029 ft | 458 kts | 206° |
| 2026-04-21 07:48 | 48.60843 | 18.42449 | 38030 ft | 458 kts | 206° |
| 2026-04-21 07:49 | 48.54990 | 18.38658 | 38038 ft | 458 kts | 206° |
| 2026-04-21 07:49 | 48.49141 | 18.34880 | 38032 ft | 457 kts | 206° |
| 2026-04-21 07:50 | 48.43286 | 18.31108 | 38037 ft | 458 kts | 206° |
| 2026-04-21 07:50 | 48.37438 | 18.27349 | 38047 ft | 458 kts | 206° |
| 2026-04-21 07:51 | 48.31578 | 18.23592 | 38046 ft | 458 kts | 206° |
| 2026-04-21 07:51 | 48.25719 | 18.19846 | 38033 ft | 458 kts | 206° |
| 2026-04-21 07:52 | 48.19860 | 18.16108 | 38039 ft | 458 kts | 206° |
| 2026-04-21 07:52 | 48.13997 | 18.12378 | 38046 ft | 458 kts | 206° |
| 2026-04-21 07:53 | 48.08137 | 18.08658 | 38043 ft | 457 kts | 206° |
| 2026-04-21 07:53 | 48.02278 | 18.04948 | 38048 ft | 457 kts | 206° |
| 2026-04-21 07:54 | 47.96414 | 18.01245 | 38045 ft | 457 kts | 206° |
| 2026-04-21 07:54 | 47.90548 | 17.97549 | 38056 ft | 457 kts | 206° |
| 2026-04-21 07:55 | 47.84694 | 17.93869 | 38066 ft | 457 kts | 206° |
| 2026-04-21 07:55 | 47.78815 | 17.90184 | 38068 ft | 458 kts | 206° |
| 2026-04-21 07:56 | 47.72987 | 17.86539 | 38072 ft | 458 kts | 206° |
| 2026-04-21 07:56 | 47.67079 | 17.82853 | 38074 ft | 458 kts | 206° |
| 2026-04-21 07:57 | 47.61241 | 17.79220 | 38073 ft | 458 kts | 206° |
| 2026-04-21 07:57 | 47.55367 | 17.75573 | 38074 ft | 458 kts | 206° |
| 2026-04-21 07:58 | 47.49490 | 17.71934 | 38074 ft | 458 kts | 206° |
| 2026-04-21 07:58 | 47.43612 | 17.68302 | 38077 ft | 458 kts | 206° |
| 2026-04-21 07:59 | 47.37737 | 17.64681 | 38071 ft | 457 kts | 206° |
| 2026-04-21 07:59 | 47.31858 | 17.61066 | 38074 ft | 457 kts | 206° |
| 2026-04-21 08:00 | 47.25989 | 17.57467 | 38073 ft | 457 kts | 206° |
| 2026-04-21 08:00 | 47.20108 | 17.53868 | 38069 ft | 457 kts | 206° |
| 2026-04-21 08:01 | 47.14241 | 17.50287 | 38066 ft | 457 kts | 206° |
| 2026-04-21 08:02 | 47.05436 | 17.44928 | 38073 ft | 457 kts | 206° |
| 2026-04-21 08:02 | 46.99564 | 17.41366 | 38071 ft | 456 kts | 206° |
| 2026-04-21 08:03 | 46.93701 | 17.37817 | 38069 ft | 456 kts | 207° |
| 2026-04-21 08:03 | 46.87836 | 17.34275 | 38069 ft | 456 kts | 207° |
| 2026-04-21 08:04 | 46.81971 | 17.30742 | 38075 ft | 456 kts | 207° |
| 2026-04-21 08:04 | 46.76105 | 17.27217 | 38071 ft | 456 kts | 207° |
| 2026-04-21 08:05 | 46.70252 | 17.23707 | 38071 ft | 455 kts | 207° |
| 2026-04-21 08:05 | 46.64389 | 17.20200 | 38073 ft | 455 kts | 207° |
| 2026-04-21 08:06 | 46.58539 | 17.16708 | 38082 ft | 455 kts | 207° |
| 2026-04-21 08:06 | 46.52688 | 17.13224 | 38073 ft | 454 kts | 207° |
| 2026-04-21 08:07 | 46.46853 | 17.09757 | 38071 ft | 453 kts | 207° |
| 2026-04-21 08:07 | 46.41019 | 17.06297 | 38069 ft | 452 kts | 207° |
| 2026-04-21 08:08 | 46.35194 | 17.02852 | 38070 ft | 452 kts | 207° |
| 2026-04-21 08:08 | 46.29409 | 16.99437 | 38071 ft | 452 kts | 207° |
| 2026-04-21 08:09 | 46.23626 | 16.95905 | 38066 ft | 448 kts | 213° |
| 2026-04-21 08:09 | 46.18131 | 16.91687 | 38070 ft | 448 kts | 213° |
| 2026-04-21 08:10 | 46.12637 | 16.87434 | 38071 ft | 448 kts | 213° |
| 2026-04-21 08:10 | 46.07152 | 16.83192 | 38065 ft | 448 kts | 213° |
| 2026-04-21 08:11 | 46.01656 | 16.78950 | 38066 ft | 448 kts | 213° |
| 2026-04-21 08:11 | 45.96163 | 16.74720 | 38064 ft | 448 kts | 213° |
| 2026-04-21 08:12 | 45.90664 | 16.70495 | 38067 ft | 448 kts | 213° |
| 2026-04-21 08:12 | 45.85165 | 16.66280 | 38067 ft | 448 kts | 213° |
| 2026-04-21 08:13 | 45.79666 | 16.62073 | 38074 ft | 448 kts | 213° |
| 2026-04-21 08:13 | 45.74161 | 16.57872 | 38069 ft | 448 kts | 213° |
| 2026-04-21 08:14 | 45.68666 | 16.53688 | 38068 ft | 449 kts | 213° |
| 2026-04-21 08:14 | 45.63144 | 16.49493 | 38076 ft | 449 kts | 213° |
| 2026-04-21 08:15 | 45.57617 | 16.45304 | 38054 ft | 449 kts | 213° |
| 2026-04-21 08:15 | 45.52123 | 16.41149 | 38063 ft | 450 kts | 213° |
| 2026-04-21 08:16 | 45.46552 | 16.36945 | 38060 ft | 450 kts | 213° |
| 2026-04-21 08:16 | 45.41052 | 16.32803 | 38059 ft | 450 kts | 213° |
| 2026-04-21 08:17 | 45.35513 | 16.28643 | 38055 ft | 450 kts | 213° |
| 2026-04-21 08:17 | 45.29976 | 16.24492 | 38063 ft | 450 kts | 213° |
| 2026-04-21 08:18 | 45.24434 | 16.20347 | 38060 ft | 450 kts | 213° |
| 2026-04-21 08:18 | 45.18900 | 16.16217 | 38060 ft | 449 kts | 213° |
| 2026-04-21 08:19 | 45.13368 | 16.12098 | 38056 ft | 449 kts | 213° |
| 2026-04-21 08:19 | 45.07837 | 16.07989 | 38060 ft | 449 kts | 213° |
| 2026-04-21 08:20 | 45.02306 | 16.03889 | 38056 ft | 449 kts | 213° |
| 2026-04-21 08:20 | 44.96778 | 15.99799 | 38049 ft | 448 kts | 213° |
| 2026-04-21 08:21 | 44.91258 | 15.95725 | 38046 ft | 448 kts | 213° |
| 2026-04-21 08:21 | 44.85739 | 15.91660 | 38055 ft | 447 kts | 213° |
| 2026-04-21 08:22 | 44.80241 | 15.87620 | 38047 ft | 445 kts | 213° |
| 2026-04-21 08:22 | 44.74750 | 15.83593 | 38038 ft | 444 kts | 213° |
| 2026-04-21 08:23 | 44.69269 | 15.79583 | 38039 ft | 444 kts | 213° |
| 2026-04-21 08:23 | 44.63804 | 15.75593 | 38025 ft | 442 kts | 213° |
| 2026-04-21 08:24 | 44.58384 | 15.71644 | 38017 ft | 441 kts | 213° |
| 2026-04-21 08:24 | 44.52939 | 15.67685 | 38013 ft | 440 kts | 213° |
| 2026-04-21 08:25 | 44.47504 | 15.63741 | 38002 ft | 440 kts | 213° |
| 2026-04-21 08:25 | 44.42064 | 15.59803 | 37993 ft | 440 kts | 213° |
| 2026-04-21 08:26 | 44.36635 | 15.55881 | 37976 ft | 439 kts | 213° |
| 2026-04-21 08:26 | 44.31204 | 15.51966 | 37979 ft | 440 kts | 213° |
| 2026-04-21 08:27 | 44.25777 | 15.48060 | 37960 ft | 439 kts | 213° |
| 2026-04-21 08:27 | 44.20351 | 15.44163 | 37966 ft | 439 kts | 213° |
| 2026-04-21 08:28 | 44.14919 | 15.40269 | 37962 ft | 439 kts | 213° |
| 2026-04-21 08:28 | 44.09503 | 15.36379 | 37961 ft | 438 kts | 214° |
| 2026-04-21 08:29 | 44.04120 | 15.32432 | 37961 ft | 437 kts | 214° |
| 2026-04-21 08:29 | 43.99650 | 15.29163 | 37959 ft | 437 kts | 213° |
| 2026-04-21 08:30 | 43.94274 | 15.25240 | 37957 ft | 436 kts | 213° |
| 2026-04-21 08:30 | 43.88901 | 15.21329 | 37961 ft | 436 kts | 213° |
| 2026-04-21 08:31 | 43.83532 | 15.17427 | 37960 ft | 436 kts | 213° |
| 2026-04-21 08:31 | 43.78164 | 15.13534 | 37965 ft | 435 kts | 213° |
| 2026-04-21 08:32 | 43.72797 | 15.09650 | 37966 ft | 435 kts | 213° |
| 2026-04-21 08:32 | 43.67433 | 15.05776 | 37965 ft | 435 kts | 213° |
| 2026-04-21 08:33 | 43.62071 | 15.01911 | 37973 ft | 435 kts | 213° |
| 2026-04-21 08:33 | 43.56709 | 14.98053 | 37973 ft | 435 kts | 213° |
| 2026-04-21 08:34 | 43.51348 | 14.94204 | 37982 ft | 434 kts | 213° |
| 2026-04-21 08:34 | 43.45987 | 14.90361 | 37982 ft | 435 kts | 213° |
| 2026-04-21 08:35 | 43.40621 | 14.86522 | 37972 ft | 435 kts | 213° |
| 2026-04-21 08:35 | 43.35288 | 14.82715 | 37974 ft | 435 kts | 213° |
| 2026-04-21 08:36 | 43.29816 | 14.79126 | 37969 ft | 441 kts | 205° |
| 2026-04-21 08:36 | 43.24094 | 14.76131 | 37972 ft | 440 kts | 207° |
| 2026-04-21 08:37 | 43.18405 | 14.73040 | 37976 ft | 440 kts | 208° |
| 2026-04-21 08:37 | 43.12716 | 14.69941 | 37977 ft | 440 kts | 208° |
| 2026-04-21 08:38 | 43.07025 | 14.66847 | 37970 ft | 440 kts | 208° |
| 2026-04-21 08:38 | 43.01328 | 14.63755 | 37980 ft | 440 kts | 208° |
| 2026-04-21 08:39 | 42.95634 | 14.60671 | 37970 ft | 440 kts | 208° |
| 2026-04-21 08:39 | 42.89937 | 14.57592 | 37974 ft | 439 kts | 208° |
| 2026-04-21 08:40 | 42.84299 | 14.54550 | 37973 ft | 434 kts | 208° |
| 2026-04-21 08:40 | 42.78685 | 14.51527 | 37970 ft | 434 kts | 208° |
| 2026-04-21 08:41 | 42.73072 | 14.48510 | 37973 ft | 434 kts | 208° |
| 2026-04-21 08:41 | 42.67457 | 14.45499 | 37969 ft | 434 kts | 208° |
| 2026-04-21 08:42 | 42.61842 | 14.42494 | 37968 ft | 434 kts | 208° |
| 2026-04-21 08:42 | 42.59029 | 14.40990 | 37772 ft | 434 kts | 208° |
| 2026-04-21 08:42 | 42.56241 | 14.39501 | 37222 ft | 428 kts | 208° |
| 2026-04-21 08:42 | 42.53477 | 14.38025 | 36691 ft | 425 kts | 208° |
| 2026-04-21 08:43 | 42.50737 | 14.36564 | 36187 ft | 422 kts | 208° |
| 2026-04-21 08:43 | 42.48016 | 14.35111 | 35671 ft | 419 kts | 210° |
| 2026-04-21 08:43 | 42.45520 | 14.33255 | 35152 ft | 401 kts | 226° |
| 2026-04-21 08:43 | 42.43639 | 14.30603 | 34678 ft | 384 kts | 242° |
| 2026-04-21 08:44 | 42.42178 | 14.27613 | 34252 ft | 378 kts | 244° |
| 2026-04-21 08:44 | 42.40788 | 14.24614 | 33731 ft | 376 kts | 245° |
| 2026-04-21 08:44 | 42.39440 | 14.21581 | 33084 ft | 376 kts | 245° |
| 2026-04-21 08:44 | 42.38112 | 14.18536 | 32468 ft | 376 kts | 246° |
| 2026-04-21 08:45 | 42.36794 | 14.15480 | 31869 ft | 376 kts | 246° |
| 2026-04-21 08:45 | 42.35478 | 14.12409 | 31272 ft | 377 kts | 246° |
| 2026-04-21 08:45 | 42.34169 | 14.09347 | 30695 ft | 377 kts | 246° |
| 2026-04-21 08:45 | 42.32857 | 14.06276 | 30126 ft | 377 kts | 246° |
| 2026-04-21 08:46 | 42.31549 | 14.03213 | 29478 ft | 377 kts | 246° |
| 2026-04-21 08:46 | 42.30240 | 14.00154 | 28826 ft | 377 kts | 245° |
| 2026-04-21 08:46 | 42.28927 | 13.97087 | 28182 ft | 377 kts | 245° |
| 2026-04-21 08:46 | 42.27613 | 13.94024 | 27556 ft | 377 kts | 245° |
| 2026-04-21 08:47 | 42.26319 | 13.91007 | 26952 ft | 376 kts | 245° |
| 2026-04-21 08:47 | 42.24990 | 13.87913 | 26341 ft | 376 kts | 245° |
| 2026-04-21 08:47 | 42.23698 | 13.84907 | 25766 ft | 375 kts | 245° |
| 2026-04-21 08:47 | 42.22389 | 13.81866 | 25204 ft | 375 kts | 245° |
| 2026-04-21 08:48 | 42.21078 | 13.78824 | 24624 ft | 375 kts | 245° |
| 2026-04-21 08:48 | 42.19767 | 13.75784 | 24069 ft | 375 kts | 245° |
| 2026-04-21 08:48 | 42.18562 | 13.72689 | 23516 ft | 370 kts | 253° |
| 2026-04-21 08:48 | 42.17675 | 13.69447 | 22887 ft | 369 kts | 254° |
| 2026-04-21 08:49 | 42.16767 | 13.66214 | 22266 ft | 369 kts | 253° |
| 2026-04-21 08:49 | 42.15859 | 13.62991 | 21645 ft | 368 kts | 254° |
| 2026-04-21 08:49 | 42.14950 | 13.59770 | 21043 ft | 367 kts | 253° |
| 2026-04-21 08:49 | 42.14039 | 13.56551 | 20459 ft | 368 kts | 253° |
| 2026-04-21 08:50 | 42.13130 | 13.53340 | 19874 ft | 367 kts | 253° |
| 2026-04-21 08:50 | 42.12219 | 13.50124 | 19299 ft | 367 kts | 253° |
| 2026-04-21 08:50 | 42.11310 | 13.46922 | 18746 ft | 366 kts | 253° |
| 2026-04-21 08:50 | 42.10402 | 13.43726 | 18193 ft | 365 kts | 253° |
| 2026-04-21 08:51 | 42.09494 | 13.40534 | 17566 ft | 365 kts | 253° |
| 2026-04-21 08:51 | 42.08585 | 13.37345 | 16949 ft | 365 kts | 253° |
| 2026-04-21 08:51 | 42.07675 | 13.34156 | 16352 ft | 364 kts | 253° |
| 2026-04-21 08:51 | 42.06775 | 13.31002 | 15933 ft | 356 kts | 252° |
| 2026-04-21 08:52 | 42.05874 | 13.27959 | 15518 ft | 346 kts | 248° |
| 2026-04-21 08:52 | 42.04650 | 13.25212 | 15107 ft | 336 kts | 245° |
| 2026-04-21 08:52 | 42.03888 | 13.22346 | 14696 ft | 319 kts | 263° |
| 2026-04-21 08:52 | 42.03769 | 13.19433 | 14316 ft | 307 kts | 275° |
| 2026-04-21 08:53 | 42.04053 | 13.16620 | 13883 ft | 303 kts | 278° |
| 2026-04-21 08:53 | 42.04262 | 13.13783 | 13398 ft | 306 kts | 277° |
| 2026-04-21 08:53 | 42.04495 | 13.10930 | 12883 ft | 308 kts | 277° |
| 2026-04-21 08:53 | 42.04743 | 13.08066 | 12378 ft | 310 kts | 277° |
| 2026-04-21 08:54 | 42.05004 | 13.05171 | 11878 ft | 312 kts | 278° |
| 2026-04-21 08:54 | 42.05271 | 13.02265 | 11385 ft | 314 kts | 278° |
| 2026-04-21 08:54 | 42.05544 | 12.99345 | 10893 ft | 315 kts | 278° |
| 2026-04-21 08:54 | 42.05820 | 12.96411 | 10409 ft | 317 kts | 278° |
| 2026-04-21 08:55 | 42.06098 | 12.93462 | 9932 ft | 319 kts | 277° |
| 2026-04-21 08:55 | 42.06376 | 12.90496 | 9437 ft | 320 kts | 278° |
| 2026-04-21 08:55 | 42.06653 | 12.87560 | 9105 ft | 310 kts | 278° |
| 2026-04-21 08:55 | 42.06920 | 12.84761 | 8852 ft | 295 kts | 277° |
| 2026-04-21 08:56 | 42.07174 | 12.82085 | 8563 ft | 283 kts | 277° |
| 2026-04-21 08:56 | 42.07385 | 12.79850 | 8302 ft | 275 kts | 277° |
| 2026-04-21 08:56 | 42.07621 | 12.77338 | 7981 ft | 266 kts | 277° |
| 2026-04-21 08:56 | 42.07848 | 12.74902 | 7678 ft | 259 kts | 277° |
| 2026-04-21 08:57 | 42.08068 | 12.72527 | 7387 ft | 252 kts | 277° |
| 2026-04-21 08:57 | 42.08284 | 12.70192 | 7109 ft | 250 kts | 277° |
| 2026-04-21 08:57 | 42.08497 | 12.67869 | 6808 ft | 249 kts | 277° |
| 2026-04-21 08:57 | 42.08706 | 12.65592 | 6552 ft | 248 kts | 277° |
| 2026-04-21 08:58 | 42.08915 | 12.63306 | 6372 ft | 243 kts | 277° |
| 2026-04-21 08:58 | 42.09120 | 12.61057 | 6224 ft | 235 kts | 277° |
| 2026-04-21 08:58 | 42.09313 | 12.58938 | 6099 ft | 227 kts | 277° |
| 2026-04-21 08:58 | 42.09501 | 12.56869 | 6021 ft | 220 kts | 277° |
| 2026-04-21 08:59 | 42.09634 | 12.54830 | 5912 ft | 217 kts | 265° |
| 2026-04-21 08:59 | 42.09133 | 12.52936 | 5579 ft | 219 kts | 234° |
| 2026-04-21 08:59 | 42.07938 | 12.51635 | 5267 ft | 222 kts | 206° |
| 2026-04-21 08:59 | 42.06521 | 12.50881 | 5006 ft | 222 kts | 202° |
| 2026-04-21 09:00 | 42.05082 | 12.50144 | 4761 ft | 220 kts | 202° |
| 2026-04-21 09:00 | 42.03656 | 12.49425 | 4498 ft | 218 kts | 202° |
| 2026-04-21 09:00 | 42.02248 | 12.48721 | 4212 ft | 214 kts | 202° |
| 2026-04-21 09:00 | 42.00875 | 12.48038 | 3973 ft | 207 kts | 201° |
| 2026-04-21 09:01 | 41.99552 | 12.47384 | 3835 ft | 198 kts | 200° |
| 2026-04-21 09:01 | 41.98226 | 12.47208 | 3669 ft | 192 kts | 170° |
| 2026-04-21 09:01 | 41.96998 | 12.47798 | 3571 ft | 184 kts | 158° |
| 2026-04-21 09:01 | 41.95838 | 12.48525 | 3485 ft | 183 kts | 156° |
| 2026-04-21 09:02 | 41.94694 | 12.49284 | 3331 ft | 184 kts | 155° |
| 2026-04-21 09:02 | 41.93555 | 12.50061 | 3113 ft | 183 kts | 154° |
| 2026-04-21 09:02 | 41.92426 | 12.50840 | 2892 ft | 182 kts | 154° |
| 2026-04-21 09:03 | 41.90215 | 12.52367 | 2436 ft | 171 kts | 154° |
| 2026-04-21 09:03 | 41.89198 | 12.53072 | 2211 ft | 156 kts | 154° |
| 2026-04-21 09:03 | 41.88269 | 12.53720 | 2041 ft | 146 kts | 155° |
| 2026-04-21 09:03 | 41.87371 | 12.54339 | 1839 ft | 145 kts | 155° |
| 2026-04-21 09:04 | 41.86479 | 12.54960 | 1675 ft | 144 kts | 155° |
| 2026-04-21 09:04 | 41.85586 | 12.55577 | 1473 ft | 145 kts | 155° |
| 2026-04-21 09:04 | 41.84694 | 12.56194 | 1270 ft | 144 kts | 154° |
| 2026-04-21 09:04 | 41.83810 | 12.56809 | 1083 ft | 143 kts | 154° |
| 2026-04-21 09:05 | 41.82928 | 12.57419 | 895 ft | 142 kts | 156° |
| 2026-04-21 09:05 | 41.82053 | 12.58024 | 703 ft | 142 kts | 155° |
| 2026-04-21 09:05 | 41.81188 | 12.58626 | 518 ft | 140 kts | 155° |
| 2026-04-21 09:05 | 41.80333 | 12.59210 | 393 ft | 131 kts | 155° |
| 2026-04-21 09:06 | 41.79745 | 12.59617 | 393 ft | 60 kts | 153° |
| 2026-04-21 09:06 | 41.79408 | 12.59850 | 391 ft | 51 kts | 153° |
| 2026-04-21 09:06 | 41.79162 | 12.60020 | 393 ft | 28 kts | 153° |
| 2026-04-21 09:06 | 41.79063 | 12.60041 | 394 ft | 12 kts | 216° |
| 2026-04-21 09:07 | 41.79028 | 12.59941 | 395 ft | 13 kts | 274° |
| 2026-04-21 09:07 | 41.79093 | 12.59861 | 391 ft | 15 kts | 333° |
| 2026-04-21 09:07 | 41.79193 | 12.59793 | 393 ft | 17 kts | 333° |
| 2026-04-21 09:07 | 41.79306 | 12.59715 | 394 ft | 20 kts | 332° |
| 2026-04-21 09:08 | 41.79435 | 12.59625 | 395 ft | 22 kts | 333° |
| 2026-04-21 09:08 | 41.79579 | 12.59527 | 392 ft | 24 kts | 332° |
| 2026-04-21 09:08 | 41.79707 | 12.59438 | 395 ft | 21 kts | 332° |
| 2026-04-21 09:08 | 41.79837 | 12.59348 | 395 ft | 22 kts | 332° |
| 2026-04-21 09:09 | 41.79976 | 12.59253 | 395 ft | 22 kts | 333° |
| 2026-04-21 09:09 | 41.80109 | 12.59161 | 393 ft | 21 kts | 333° |
| 2026-04-21 09:09 | 41.80173 | 12.59098 | 395 ft | 9 kts | 280° |
| 2026-04-21 09:09 | 41.80142 | 12.59015 | 393 ft | 11 kts | 233° |
| 2026-04-21 09:10 | 41.80101 | 12.58944 | 395 ft | 4 kts | 231° |
| 2026-04-21 09:10 | 41.80104 | 12.58912 | 395 ft | 4 kts | 312° |
| 2026-04-21 09:10 | 41.80133 | 12.58880 | 395 ft | 4 kts | 321° |
| 2026-04-21 09:10 | 41.80143 | 12.58869 | 392 ft | 0 kts | 321° |